sensor_id;sensor_type;location;lat;lon;timestamp;P1;durP1;ratioP1;P2;durP2;ratioP2
18399;SDS011;9326;49.468;11.008;2023-04-06T05:02:21;9.07;;;5.00;;
18399;SDS011;9326;49.468;11.008;2023-04-06T05:04:49;7.93;;;5.03;;
18399;SDS011;9326;49.468;11.008;2023-04-06T05:07:16;7.30;;;4.70;;
18399;SDS011;9326;49.468;11.008;2023-04-06T05:09:45;8.07;;;5.93;;
18399;SDS011;9326;49.468;11.008;2023-04-06T05:12:14;11.60;;;6.20;;
18399;SDS011;9326;49.468;11.008;2023-04-06T05:14:41;8.30;;;5.80;;
18399;SDS011;9326;49.468;11.008;2023-04-06T05:17:08;12.10;;;5.57;;
18399;SDS011;9326;49.468;11.008;2023-04-06T05:19:41;8.10;;;5.80;;
18399;SDS011;9326;49.468;11.008;2023-04-06T05:22:10;8.67;;;6.00;;
18399;SDS011;9326;49.468;11.008;2023-04-06T05:24:39;12.63;;;6.00;;
18399;SDS011;9326;49.468;11.008;2023-04-06T05:27:07;8.37;;;5.90;;
18399;SDS011;9326;49.468;11.008;2023-04-06T05:29:36;8.10;;;5.20;;
18399;SDS011;9326;49.468;11.008;2023-04-06T05:32:04;9.93;;;5.10;;
18399;SDS011;9326;49.468;11.008;2023-04-06T05:34:32;9.47;;;4.87;;
18399;SDS011;9326;49.468;11.008;2023-04-06T05:37:00;6.47;;;4.87;;
18399;SDS011;9326;49.468;11.008;2023-04-06T05:39:28;10.70;;;5.37;;
18399;SDS011;9326;49.468;11.008;2023-04-06T05:41:55;10.63;;;5.97;;
18399;SDS011;9326;49.468;11.008;2023-04-06T05:44:23;7.20;;;5.13;;
18399;SDS011;9326;49.468;11.008;2023-04-06T05:46:50;15.53;;;6.27;;
18399;SDS011;9326;49.468;11.008;2023-04-06T05:49:17;11.30;;;5.20;;
18399;SDS011;9326;49.468;11.008;2023-04-06T05:51:44;9.47;;;5.73;;
18399;SDS011;9326;49.468;11.008;2023-04-06T05:54:12;11.87;;;6.07;;
18399;SDS011;9326;49.468;11.008;2023-04-06T05:56:40;12.30;;;6.43;;
18399;SDS011;9326;49.468;11.008;2023-04-06T05:59:07;10.13;;;6.30;;
18399;SDS011;9326;49.468;11.008;2023-04-06T06:01:34;12.43;;;6.47;;
18399;SDS011;9326;49.468;11.008;2023-04-06T06:04:01;14.93;;;7.07;;
18399;SDS011;9326;49.468;11.008;2023-04-06T06:06:28;13.13;;;6.63;;
18399;SDS011;9326;49.468;11.008;2023-04-06T06:08:57;11.23;;;5.83;;
18399;SDS011;9326;49.468;11.008;2023-04-06T06:11:33;10.23;;;5.40;;
18399;SDS011;9326;49.468;11.008;2023-04-06T06:14:02;11.33;;;5.80;;
18399;SDS011;9326;49.468;11.008;2023-04-06T06:16:29;10.97;;;5.63;;
18399;SDS011;9326;49.468;11.008;2023-04-06T06:18:56;11.83;;;5.97;;
18399;SDS011;9326;49.468;11.008;2023-04-06T06:21:25;10.00;;;6.17;;
18399;SDS011;9326;49.468;11.008;2023-04-06T06:23:52;10.97;;;5.70;;
18399;SDS011;9326;49.468;11.008;2023-04-06T06:26:19;9.43;;;5.47;;
18399;SDS011;9326;49.468;11.008;2023-04-06T06:28:51;7.70;;;5.23;;
18399;SDS011;9326;49.468;11.008;2023-04-06T06:31:22;9.27;;;5.10;;
18399;SDS011;9326;49.468;11.008;2023-04-06T06:33:55;8.20;;;5.30;;
18399;SDS011;9326;49.468;11.008;2023-04-06T06:36:28;11.63;;;5.83;;
18399;SDS011;9326;49.468;11.008;2023-04-06T06:38:56;12.73;;;5.80;;
18399;SDS011;9326;49.468;11.008;2023-04-06T06:41:25;11.13;;;6.27;;
18399;SDS011;9326;49.468;11.008;2023-04-06T06:43:55;9.10;;;5.53;;
18399;SDS011;9326;49.468;11.008;2023-04-06T06:46:27;11.37;;;5.93;;
18399;SDS011;9326;49.468;11.008;2023-04-06T06:48:55;11.40;;;5.90;;
18399;SDS011;9326;49.468;11.008;2023-04-06T06:51:22;10.90;;;5.77;;
18399;SDS011;9326;49.468;11.008;2023-04-06T06:53:50;13.57;;;6.70;;
18399;SDS011;9326;49.468;11.008;2023-04-06T06:56:19;10.50;;;6.07;;
18399;SDS011;9326;49.468;11.008;2023-04-06T06:58:50;11.40;;;5.67;;
18399;SDS011;9326;49.468;11.008;2023-04-06T07:01:18;9.93;;;5.63;;
18399;SDS011;9326;49.468;11.008;2023-04-06T07:03:45;9.10;;;6.10;;
18399;SDS011;9326;49.468;11.008;2023-04-06T07:06:12;10.47;;;5.57;;
18399;SDS011;9326;49.468;11.008;2023-04-06T07:08:40;8.40;;;5.73;;
18399;SDS011;9326;49.468;11.008;2023-04-06T07:11:07;7.37;;;5.03;;
18399;SDS011;9326;49.468;11.008;2023-04-06T07:13:34;7.63;;;5.20;;
18399;SDS011;9326;49.468;11.008;2023-04-06T07:16:01;10.83;;;5.17;;
18399;SDS011;9326;49.468;11.008;2023-04-06T07:18:30;6.57;;;4.93;;
18399;SDS011;9326;49.468;11.008;2023-04-06T07:20:59;7.50;;;4.97;;
18399;SDS011;9326;49.468;11.008;2023-04-06T07:23:26;6.27;;;4.93;;
18399;SDS011;9326;49.468;11.008;2023-04-06T07:25:53;6.33;;;5.03;;
18399;SDS011;9326;49.468;11.008;2023-04-06T07:28:28;8.33;;;5.10;;
18399;SDS011;9326;49.468;11.008;2023-04-06T07:30:55;8.70;;;5.40;;
18399;SDS011;9326;49.468;11.008;2023-04-06T07:33:22;9.87;;;5.33;;
18399;SDS011;9326;49.468;11.008;2023-04-06T07:35:59;6.33;;;4.90;;
18399;SDS011;9326;49.468;11.008;2023-04-06T07:38:26;8.93;;;5.30;;
18399;SDS011;9326;49.468;11.008;2023-04-06T07:40:54;5.57;;;4.83;;
18399;SDS011;9326;49.468;11.008;2023-04-06T07:43:21;6.70;;;5.20;;
18399;SDS011;9326;49.468;11.008;2023-04-06T07:45:50;8.93;;;5.47;;
18399;SDS011;9326;49.468;11.008;2023-04-06T07:48:18;9.50;;;5.60;;
18399;SDS011;9326;49.468;11.008;2023-04-06T07:50:46;6.77;;;5.50;;
18399;SDS011;9326;49.468;11.008;2023-04-06T07:53:14;7.77;;;5.17;;
18399;SDS011;9326;49.468;11.008;2023-04-06T07:55:43;7.97;;;5.23;;
18399;SDS011;9326;49.468;11.008;2023-04-06T07:58:13;7.20;;;5.83;;
18399;SDS011;9326;49.468;11.008;2023-04-06T08:00:40;8.20;;;5.43;;
18399;SDS011;9326;49.468;11.008;2023-04-06T08:03:20;8.50;;;5.60;;
18399;SDS011;9326;49.468;11.008;2023-04-06T08:05:50;9.13;;;5.47;;
18399;SDS011;9326;49.468;11.008;2023-04-06T08:08:23;10.67;;;5.83;;
18399;SDS011;9326;49.468;11.008;2023-04-06T08:10:56;9.03;;;6.10;;
18399;SDS011;9326;49.468;11.008;2023-04-06T08:13:23;10.90;;;6.20;;
18399;SDS011;9326;49.468;11.008;2023-04-06T08:15:51;11.27;;;6.63;;
18399;SDS011;9326;49.468;11.008;2023-04-06T08:18:18;7.93;;;6.70;;
18399;SDS011;9326;49.468;11.008;2023-04-06T08:20:46;10.60;;;6.37;;
18399;SDS011;9326;49.468;11.008;2023-04-06T08:23:14;9.60;;;6.20;;
18399;SDS011;9326;49.468;11.008;2023-04-06T08:25:43;9.40;;;6.23;;
18399;SDS011;9326;49.468;11.008;2023-04-06T08:28:10;7.83;;;6.07;;
18399;SDS011;9326;49.468;11.008;2023-04-06T08:30:39;7.70;;;5.83;;
18399;SDS011;9326;49.468;11.008;2023-04-06T08:33:06;8.87;;;6.40;;
18399;SDS011;9326;49.468;11.008;2023-04-06T08:35:33;7.03;;;5.83;;
18399;SDS011;9326;49.468;11.008;2023-04-06T08:38:01;8.67;;;6.43;;
18399;SDS011;9326;49.468;11.008;2023-04-06T08:40:28;7.43;;;6.07;;
18399;SDS011;9326;49.468;11.008;2023-04-06T08:42:57;7.70;;;6.33;;
18399;SDS011;9326;49.468;11.008;2023-04-06T08:45:27;6.67;;;5.80;;
18399;SDS011;9326;49.468;11.008;2023-04-06T08:47:54;6.33;;;5.73;;
18399;SDS011;9326;49.468;11.008;2023-04-06T08:50:27;8.80;;;5.63;;
18399;SDS011;9326;49.468;11.008;2023-04-06T08:52:56;7.67;;;5.90;;
18399;SDS011;9326;49.468;11.008;2023-04-06T08:55:25;9.37;;;5.87;;
18399;SDS011;9326;49.468;11.008;2023-04-06T08:57:56;6.97;;;6.10;;
18399;SDS011;9326;49.468;11.008;2023-04-06T09:00:29;6.83;;;6.03;;
18399;SDS011;9326;49.468;11.008;2023-04-06T09:02:58;6.63;;;5.47;;
18399;SDS011;9326;49.468;11.008;2023-04-06T09:05:33;7.20;;;6.50;;
18399;SDS011;9326;49.468;11.008;2023-04-06T09:08:08;6.67;;;5.90;;
18399;SDS011;9326;49.468;11.008;2023-04-06T09:10:35;6.60;;;5.67;;
18399;SDS011;9326;49.468;11.008;2023-04-06T09:13:04;7.67;;;6.10;;
18399;SDS011;9326;49.468;11.008;2023-04-06T09:15:31;6.97;;;6.27;;
18399;SDS011;9326;49.468;11.008;2023-04-06T09:18:05;9.43;;;5.87;;
18399;SDS011;9326;49.468;11.008;2023-04-06T09:20:39;7.70;;;6.10;;
18399;SDS011;9326;49.468;11.008;2023-04-06T09:23:16;8.17;;;6.47;;
18399;SDS011;9326;49.468;11.008;2023-04-06T09:25:44;6.33;;;5.67;;
18399;SDS011;9326;49.468;11.008;2023-04-06T09:28:12;10.17;;;5.87;;
18399;SDS011;9326;49.468;11.008;2023-04-06T09:30:47;7.90;;;6.23;;
18399;SDS011;9326;49.468;11.008;2023-04-06T09:33:21;8.27;;;6.40;;
18399;SDS011;9326;49.468;11.008;2023-04-06T09:35:49;8.20;;;6.63;;
18399;SDS011;9326;49.468;11.008;2023-04-06T09:38:19;8.23;;;6.27;;
18399;SDS011;9326;49.468;11.008;2023-04-06T09:40:50;7.47;;;6.00;;
18399;SDS011;9326;49.468;11.008;2023-04-06T09:43:24;7.77;;;6.13;;
18399;SDS011;9326;49.468;11.008;2023-04-06T09:45:51;8.87;;;7.10;;
18399;SDS011;9326;49.468;11.008;2023-04-06T09:48:23;8.87;;;6.10;;
18399;SDS011;9326;49.468;11.008;2023-04-06T09:50:52;6.97;;;6.17;;
18399;SDS011;9326;49.468;11.008;2023-04-06T09:53:27;8.40;;;6.80;;
18399;SDS011;9326;49.468;11.008;2023-04-06T09:55:57;7.93;;;6.33;;
18399;SDS011;9326;49.468;11.008;2023-04-06T09:58:35;9.27;;;6.90;;
18399;SDS011;9326;49.468;11.008;2023-04-06T10:01:06;9.83;;;6.63;;
18399;SDS011;9326;49.468;11.008;2023-04-06T10:03:38;8.37;;;6.93;;
18399;SDS011;9326;49.468;11.008;2023-04-06T10:06:09;7.40;;;6.13;;
18399;SDS011;9326;49.468;11.008;2023-04-06T10:08:38;7.90;;;6.83;;
18399;SDS011;9326;49.468;11.008;2023-04-06T10:11:09;8.27;;;7.40;;
18399;SDS011;9326;49.468;11.008;2023-04-06T10:13:43;9.03;;;7.17;;
18399;SDS011;9326;49.468;11.008;2023-04-06T10:16:14;9.43;;;7.07;;
18399;SDS011;9326;49.468;11.008;2023-04-06T10:18:46;9.57;;;7.23;;
18399;SDS011;9326;49.468;11.008;2023-04-06T10:21:19;9.27;;;6.77;;
18399;SDS011;9326;49.468;11.008;2023-04-06T10:23:48;10.33;;;7.10;;
18399;SDS011;9326;49.468;11.008;2023-04-06T10:26:16;8.57;;;7.10;;
18399;SDS011;9326;49.468;11.008;2023-04-06T10:28:50;7.50;;;6.70;;
18399;SDS011;9326;49.468;11.008;2023-04-06T10:31:23;8.90;;;7.00;;
18399;SDS011;9326;49.468;11.008;2023-04-06T10:33:54;9.97;;;7.63;;
18399;SDS011;9326;49.468;11.008;2023-04-06T10:36:24;10.33;;;7.10;;
18399;SDS011;9326;49.468;11.008;2023-04-06T10:38:56;7.53;;;6.73;;
18399;SDS011;9326;49.468;11.008;2023-04-06T10:41:24;7.47;;;6.27;;
18399;SDS011;9326;49.468;11.008;2023-04-06T10:47:15;8.13;;;6.77;;
18399;SDS011;9326;49.468;11.008;2023-04-06T10:49:44;7.70;;;6.90;;
18399;SDS011;9326;49.468;11.008;2023-04-06T10:52:12;9.17;;;7.07;;
18399;SDS011;9326;49.468;11.008;2023-04-06T10:54:40;8.30;;;7.20;;
18399;SDS011;9326;49.468;11.008;2023-04-06T10:57:08;7.73;;;6.93;;
18399;SDS011;9326;49.468;11.008;2023-04-06T10:59:36;7.67;;;6.83;;
18399;SDS011;9326;49.468;11.008;2023-04-06T11:02:03;7.57;;;6.40;;
18399;SDS011;9326;49.468;11.008;2023-04-06T11:04:32;7.50;;;6.70;;
18399;SDS011;9326;49.468;11.008;2023-04-06T11:07:02;7.17;;;6.47;;
18399;SDS011;9326;49.468;11.008;2023-04-06T11:09:29;9.80;;;6.80;;
18399;SDS011;9326;49.468;11.008;2023-04-06T11:11:57;7.00;;;6.23;;
18399;SDS011;9326;49.468;11.008;2023-04-06T11:14:28;7.70;;;6.77;;
18399;SDS011;9326;49.468;11.008;2023-04-06T11:16:58;7.93;;;6.90;;
18399;SDS011;9326;49.468;11.008;2023-04-06T11:19:41;7.27;;;6.60;;
18399;SDS011;9326;49.468;11.008;2023-04-06T11:22:14;7.17;;;6.50;;
18399;SDS011;9326;49.468;11.008;2023-04-06T11:24:42;8.27;;;6.60;;
18399;SDS011;9326;49.468;11.008;2023-04-06T11:27:09;7.73;;;6.80;;
18399;SDS011;9326;49.468;11.008;2023-04-06T11:29:42;13.30;;;10.53;;
18399;SDS011;9326;49.468;11.008;2023-04-06T11:32:19;10.33;;;7.33;;
18399;SDS011;9326;49.468;11.008;2023-04-06T11:34:48;9.00;;;7.07;;
18399;SDS011;9326;49.468;11.008;2023-04-06T11:37:21;7.70;;;6.90;;
18399;SDS011;9326;49.468;11.008;2023-04-06T11:39:59;8.30;;;6.53;;
18399;SDS011;9326;49.468;11.008;2023-04-06T11:42:36;7.77;;;6.83;;
18399;SDS011;9326;49.468;11.008;2023-04-06T11:45:14;7.73;;;6.40;;
18399;SDS011;9326;49.468;11.008;2023-04-06T11:48:17;6.70;;;6.03;;
18399;SDS011;9326;49.468;11.008;2023-04-06T11:50:47;9.10;;;6.27;;
18399;SDS011;9326;49.468;11.008;2023-04-06T11:53:17;9.20;;;7.10;;
18399;SDS011;9326;49.468;11.008;2023-04-06T11:55:53;8.10;;;6.53;;
18399;SDS011;9326;49.468;11.008;2023-04-06T12:01:18;7.00;;;6.30;;
18399;SDS011;9326;49.468;11.008;2023-04-06T12:03:48;7.23;;;6.20;;
18399;SDS011;9326;49.468;11.008;2023-04-06T12:06:19;6.93;;;6.23;;
18399;SDS011;9326;49.468;11.008;2023-04-06T12:08:56;7.97;;;6.07;;
18399;SDS011;9326;49.468;11.008;2023-04-06T12:11:44;7.20;;;6.13;;
18399;SDS011;9326;49.468;11.008;2023-04-06T12:14:30;6.93;;;6.20;;
18399;SDS011;9326;49.468;11.008;2023-04-06T12:17:16;9.03;;;6.37;;
18399;SDS011;9326;49.468;11.008;2023-04-06T12:19:50;6.70;;;6.00;;
18399;SDS011;9326;49.468;11.008;2023-04-06T12:22:47;6.50;;;5.70;;
18399;SDS011;9326;49.468;11.008;2023-04-06T12:25:31;7.27;;;6.47;;
18399;SDS011;9326;49.468;11.008;2023-04-06T12:28:20;8.30;;;6.20;;
18399;SDS011;9326;49.468;11.008;2023-04-06T12:30:56;6.43;;;5.60;;
18399;SDS011;9326;49.468;11.008;2023-04-06T12:33:36;6.77;;;6.07;;
18399;SDS011;9326;49.468;11.008;2023-04-06T12:36:14;7.20;;;6.27;;
18399;SDS011;9326;49.468;11.008;2023-04-06T12:38:48;8.67;;;6.70;;
18399;SDS011;9326;49.468;11.008;2023-04-06T12:41:17;6.83;;;5.83;;
18399;SDS011;9326;49.468;11.008;2023-04-06T12:43:57;6.53;;;5.93;;
18399;SDS011;9326;49.468;11.008;2023-04-06T12:46:29;7.33;;;5.90;;
18399;SDS011;9326;49.468;11.008;2023-04-06T12:48:57;8.37;;;6.60;;
18399;SDS011;9326;49.468;11.008;2023-04-06T12:51:29;7.43;;;6.40;;
18399;SDS011;9326;49.468;11.008;2023-04-06T12:54:00;6.90;;;5.97;;
18399;SDS011;9326;49.468;11.008;2023-04-06T12:56:27;6.40;;;5.80;;
18399;SDS011;9326;49.468;11.008;2023-04-06T12:58:57;6.73;;;6.17;;
18399;SDS011;9326;49.468;11.008;2023-04-06T13:01:28;7.20;;;6.50;;
18399;SDS011;9326;49.468;11.008;2023-04-06T13:03:55;7.23;;;6.53;;
18399;SDS011;9326;49.468;11.008;2023-04-06T13:06:27;10.00;;;8.63;;
18399;SDS011;9326;49.468;11.008;2023-04-06T13:08:55;7.23;;;6.50;;
18399;SDS011;9326;49.468;11.008;2023-04-06T13:11:25;7.87;;;6.63;;
18399;SDS011;9326;49.468;11.008;2023-04-06T13:13:53;7.00;;;6.30;;
18399;SDS011;9326;49.468;11.008;2023-04-06T13:16:20;8.10;;;6.87;;
18399;SDS011;9326;49.468;11.008;2023-04-06T13:18:48;7.60;;;6.90;;
18399;SDS011;9326;49.468;11.008;2023-04-06T13:21:16;7.37;;;6.43;;
18399;SDS011;9326;49.468;11.008;2023-04-06T13:23:48;7.97;;;7.03;;
18399;SDS011;9326;49.468;11.008;2023-04-06T13:26:15;8.07;;;6.87;;
18399;SDS011;9326;49.468;11.008;2023-04-06T13:28:44;7.30;;;6.60;;
18399;SDS011;9326;49.468;11.008;2023-04-06T13:31:11;8.20;;;6.87;;
18399;SDS011;9326;49.468;11.008;2023-04-06T13:33:41;7.70;;;6.90;;
18399;SDS011;9326;49.468;11.008;2023-04-06T13:36:08;7.87;;;6.67;;
18399;SDS011;9326;49.468;11.008;2023-04-06T13:38:41;8.43;;;6.50;;
18399;SDS011;9326;49.468;11.008;2023-04-06T13:41:08;6.73;;;6.13;;
18399;SDS011;9326;49.468;11.008;2023-04-06T13:43:36;8.33;;;6.90;;
18399;SDS011;9326;49.468;11.008;2023-04-06T13:46:05;10.03;;;7.20;;
18399;SDS011;9326;49.468;11.008;2023-04-06T13:48:35;7.47;;;6.63;;
18399;SDS011;9326;49.468;11.008;2023-04-06T13:51:21;7.80;;;7.10;;
18399;SDS011;9326;49.468;11.008;2023-04-06T13:53:52;8.30;;;7.50;;
18399;SDS011;9326;49.468;11.008;2023-04-06T13:56:20;7.70;;;6.90;;
18399;SDS011;9326;49.468;11.008;2023-04-06T13:58:47;8.70;;;7.87;;
18399;SDS011;9326;49.468;11.008;2023-04-06T14:01:16;11.43;;;8.83;;
18399;SDS011;9326;49.468;11.008;2023-04-06T14:03:44;7.60;;;6.73;;
18399;SDS011;9326;49.468;11.008;2023-04-06T14:06:13;7.67;;;6.90;;
18399;SDS011;9326;49.468;11.008;2023-04-06T14:08:41;7.47;;;6.60;;
18399;SDS011;9326;49.468;11.008;2023-04-06T14:11:12;6.80;;;6.10;;
18399;SDS011;9326;49.468;11.008;2023-04-06T14:13:42;6.77;;;6.07;;
18399;SDS011;9326;49.468;11.008;2023-04-06T14:16:10;7.03;;;6.33;;
18399;SDS011;9326;49.468;11.008;2023-04-06T14:18:41;7.50;;;6.23;;
18399;SDS011;9326;49.468;11.008;2023-04-06T14:21:08;7.93;;;5.90;;
18399;SDS011;9326;49.468;11.008;2023-04-06T14:23:37;6.43;;;5.83;;
18399;SDS011;9326;49.468;11.008;2023-04-06T14:26:05;6.27;;;5.63;;
18399;SDS011;9326;49.468;11.008;2023-04-06T14:28:33;6.00;;;5.43;;
18399;SDS011;9326;49.468;11.008;2023-04-06T14:31:08;7.73;;;5.83;;
18399;SDS011;9326;49.468;11.008;2023-04-06T14:33:36;6.17;;;5.53;;
18399;SDS011;9326;49.468;11.008;2023-04-06T14:36:07;5.97;;;5.47;;
18399;SDS011;9326;49.468;11.008;2023-04-06T14:38:36;6.10;;;5.50;;
18399;SDS011;9326;49.468;11.008;2023-04-06T14:41:04;6.03;;;5.43;;
18399;SDS011;9326;49.468;11.008;2023-04-06T14:43:32;7.67;;;5.43;;
18399;SDS011;9326;49.468;11.008;2023-04-06T14:46:00;7.00;;;6.20;;
18399;SDS011;9326;49.468;11.008;2023-04-06T14:48:29;6.10;;;5.50;;
18399;SDS011;9326;49.468;11.008;2023-04-06T14:50:56;8.07;;;5.80;;
18399;SDS011;9326;49.468;11.008;2023-04-06T14:53:26;6.47;;;5.87;;
18399;SDS011;9326;49.468;11.008;2023-04-06T14:55:53;7.00;;;6.30;;
18399;SDS011;9326;49.468;11.008;2023-04-06T14:58:21;6.60;;;6.00;;
18399;SDS011;9326;49.468;11.008;2023-04-06T15:00:49;8.60;;;7.33;;
18399;SDS011;9326;49.468;11.008;2023-04-06T15:03:16;6.90;;;6.30;;
18399;SDS011;9326;49.468;11.008;2023-04-06T15:05:46;7.30;;;6.60;;
18399;SDS011;9326;49.468;11.008;2023-04-06T15:08:13;6.60;;;6.00;;
18399;SDS011;9326;49.468;11.008;2023-04-06T15:10:43;7.50;;;6.80;;
18399;SDS011;9326;49.468;11.008;2023-04-06T15:13:10;9.03;;;6.83;;
18399;SDS011;9326;49.468;11.008;2023-04-06T15:15:38;6.77;;;6.13;;
18399;SDS011;9326;49.468;11.008;2023-04-06T15:18:05;6.77;;;5.87;;
18399;SDS011;9326;49.468;11.008;2023-04-06T15:20:32;6.67;;;6.07;;
18399;SDS011;9326;49.468;11.008;2023-04-06T15:23:00;6.60;;;5.93;;
18399;SDS011;9326;49.468;11.008;2023-04-06T15:25:28;6.93;;;6.33;;
18399;SDS011;9326;49.468;11.008;2023-04-06T15:28:00;7.10;;;6.40;;
18399;SDS011;9326;49.468;11.008;2023-04-06T15:30:27;8.13;;;7.23;;
18399;SDS011;9326;49.468;11.008;2023-04-06T15:32:56;7.73;;;6.70;;
18399;SDS011;9326;49.468;11.008;2023-04-06T15:35:25;7.33;;;6.60;;
18399;SDS011;9326;49.468;11.008;2023-04-06T15:37:53;10.33;;;7.20;;
18399;SDS011;9326;49.468;11.008;2023-04-06T15:40:25;8.67;;;7.00;;
18399;SDS011;9326;49.468;11.008;2023-04-06T15:42:54;8.20;;;7.30;;
18399;SDS011;9326;49.468;11.008;2023-04-06T15:45:23;7.17;;;6.57;;
18399;SDS011;9326;49.468;11.008;2023-04-06T15:47:50;7.37;;;6.23;;
18399;SDS011;9326;49.468;11.008;2023-04-06T15:50:17;7.17;;;6.47;;
18399;SDS011;9326;49.468;11.008;2023-04-06T15:52:45;7.97;;;7.23;;
18399;SDS011;9326;49.468;11.008;2023-04-06T15:55:17;8.30;;;6.77;;
18399;SDS011;9326;49.468;11.008;2023-04-06T15:57:44;7.40;;;6.53;;
18399;SDS011;9326;49.468;11.008;2023-04-06T16:00:16;7.87;;;6.90;;
18399;SDS011;9326;49.468;11.008;2023-04-06T16:02:45;7.33;;;6.63;;
18399;SDS011;9326;49.468;11.008;2023-04-06T16:05:12;8.10;;;6.70;;
18399;SDS011;9326;49.468;11.008;2023-04-06T16:07:42;8.67;;;6.27;;
18399;SDS011;9326;49.468;11.008;2023-04-06T16:10:09;7.53;;;6.83;;
18399;SDS011;9326;49.468;11.008;2023-04-06T16:12:37;7.77;;;6.97;;
18399;SDS011;9326;49.468;11.008;2023-04-06T16:15:08;7.70;;;6.90;;
18399;SDS011;9326;49.468;11.008;2023-04-06T16:17:35;7.97;;;7.17;;
18399;SDS011;9326;49.468;11.008;2023-04-06T16:20:07;7.27;;;6.57;;
18399;SDS011;9326;49.468;11.008;2023-04-06T16:22:36;9.80;;;6.67;;
18399;SDS011;9326;49.468;11.008;2023-04-06T16:25:03;7.57;;;6.67;;
18399;SDS011;9326;49.468;11.008;2023-04-06T16:27:30;8.57;;;7.37;;
18399;SDS011;9326;49.468;11.008;2023-04-06T16:30:01;8.10;;;7.30;;
18399;SDS011;9326;49.468;11.008;2023-04-06T16:32:32;7.57;;;6.63;;
18399;SDS011;9326;49.468;11.008;2023-04-06T16:38:27;8.53;;;6.90;;
18399;SDS011;9326;49.468;11.008;2023-04-06T16:40:59;7.50;;;6.27;;
18399;SDS011;9326;49.468;11.008;2023-04-06T16:43:27;6.57;;;6.03;;
18399;SDS011;9326;49.468;11.008;2023-04-06T16:45:54;9.60;;;7.50;;
18399;SDS011;9326;49.468;11.008;2023-04-06T16:48:21;7.50;;;6.80;;
18399;SDS011;9326;49.468;11.008;2023-04-06T16:50:49;7.50;;;6.80;;
18399;SDS011;9326;49.468;11.008;2023-04-06T16:53:16;7.10;;;6.37;;
18399;SDS011;9326;49.468;11.008;2023-04-06T16:55:49;9.73;;;7.20;;
18399;SDS011;9326;49.468;11.008;2023-04-06T16:58:20;7.50;;;6.80;;
18399;SDS011;9326;49.468;11.008;2023-04-06T17:00:47;7.73;;;6.77;;
18399;SDS011;9326;49.468;11.008;2023-04-06T17:03:17;7.07;;;6.43;;
18399;SDS011;9326;49.468;11.008;2023-04-06T17:05:44;6.83;;;5.90;;
18399;SDS011;9326;49.468;11.008;2023-04-06T17:08:14;7.00;;;6.30;;
18399;SDS011;9326;49.468;11.008;2023-04-06T17:10:44;7.97;;;7.17;;
18399;SDS011;9326;49.468;11.008;2023-04-06T17:13:15;7.37;;;6.67;;
18399;SDS011;9326;49.468;11.008;2023-04-06T17:15:42;8.67;;;6.80;;
18399;SDS011;9326;49.468;11.008;2023-04-06T17:18:09;7.77;;;7.07;;
18399;SDS011;9326;49.468;11.008;2023-04-06T17:20:36;7.90;;;7.10;;
18399;SDS011;9326;49.468;11.008;2023-04-06T17:23:04;7.60;;;6.80;;
18399;SDS011;9326;49.468;11.008;2023-04-06T17:25:32;8.30;;;6.70;;
18399;SDS011;9326;49.468;11.008;2023-04-06T17:28:00;6.80;;;6.20;;
18399;SDS011;9326;49.468;11.008;2023-04-06T17:30:28;7.37;;;6.67;;
18399;SDS011;9326;49.468;11.008;2023-04-06T17:32:56;6.93;;;6.23;;
18399;SDS011;9326;49.468;11.008;2023-04-06T17:35:29;7.87;;;6.33;;
18399;SDS011;9326;49.468;11.008;2023-04-06T17:37:57;7.13;;;6.37;;
18399;SDS011;9326;49.468;11.008;2023-04-06T17:40:27;7.23;;;6.53;;
18399;SDS011;9326;49.468;11.008;2023-04-06T17:42:57;7.60;;;6.80;;
18399;SDS011;9326;49.468;11.008;2023-04-06T17:45:25;7.50;;;6.63;;
18399;SDS011;9326;49.468;11.008;2023-04-06T17:47:58;6.97;;;6.37;;
18399;SDS011;9326;49.468;11.008;2023-04-06T17:50:27;7.50;;;6.67;;
18399;SDS011;9326;49.468;11.008;2023-04-06T17:52:54;7.60;;;6.73;;
18399;SDS011;9326;49.468;11.008;2023-04-06T17:55:22;7.73;;;6.83;;
18399;SDS011;9326;49.468;11.008;2023-04-06T17:57:49;8.97;;;7.17;;
18399;SDS011;9326;49.468;11.008;2023-04-06T18:00:16;8.10;;;6.83;;
18399;SDS011;9326;49.468;11.008;2023-04-06T18:02:48;8.13;;;7.13;;
18399;SDS011;9326;49.468;11.008;2023-04-06T18:05:17;9.47;;;7.83;;
18399;SDS011;9326;49.468;11.008;2023-04-06T18:07:46;11.87;;;9.50;;
18399;SDS011;9326;49.468;11.008;2023-04-06T18:10:14;12.30;;;9.37;;
18399;SDS011;9326;49.468;11.008;2023-04-06T18:12:42;14.47;;;11.53;;
18399;SDS011;9326;49.468;11.008;2023-04-06T18:15:09;20.97;;;13.80;;
18399;SDS011;9326;49.468;11.008;2023-04-06T18:17:36;20.47;;;15.07;;
18399;SDS011;9326;49.468;11.008;2023-04-06T18:20:03;14.93;;;11.30;;
18399;SDS011;9326;49.468;11.008;2023-04-06T18:22:32;14.60;;;11.33;;
18399;SDS011;9326;49.468;11.008;2023-04-06T18:25:02;16.83;;;12.13;;
18399;SDS011;9326;49.468;11.008;2023-04-06T18:27:30;28.93;;;17.70;;
18399;SDS011;9326;49.468;11.008;2023-04-06T18:29:58;20.17;;;13.20;;
18399;SDS011;9326;49.468;11.008;2023-04-06T18:32:26;15.97;;;10.00;;
18399;SDS011;9326;49.468;11.008;2023-04-06T18:34:54;12.50;;;9.43;;
18399;SDS011;9326;49.468;11.008;2023-04-06T18:37:22;11.03;;;9.10;;
18399;SDS011;9326;49.468;11.008;2023-04-06T18:39:52;18.57;;;12.53;;
18399;SDS011;9326;49.468;11.008;2023-04-06T18:42:19;16.13;;;10.40;;
18399;SDS011;9326;49.468;11.008;2023-04-06T18:44:47;12.83;;;9.30;;
18399;SDS011;9326;49.468;11.008;2023-04-06T18:47:14;17.43;;;11.37;;
18399;SDS011;9326;49.468;11.008;2023-04-06T18:49:42;20.03;;;14.03;;
18399;SDS011;9326;49.468;11.008;2023-04-06T18:52:09;17.03;;;12.87;;
18399;SDS011;9326;49.468;11.008;2023-04-06T18:54:37;16.43;;;12.80;;
18399;SDS011;9326;49.468;11.008;2023-04-06T18:57:05;18.73;;;12.67;;
18399;SDS011;9326;49.468;11.008;2023-04-06T18:59:32;25.00;;;15.70;;
18399;SDS011;9326;49.468;11.008;2023-04-06T19:02:00;14.17;;;9.67;;
18399;SDS011;9326;49.468;11.008;2023-04-06T19:04:28;13.00;;;10.43;;
18399;SDS011;9326;49.468;11.008;2023-04-06T19:06:55;18.10;;;11.97;;
18399;SDS011;9326;49.468;11.008;2023-04-06T19:09:24;21.97;;;14.70;;
18399;SDS011;9326;49.468;11.008;2023-04-06T19:11:52;20.30;;;13.57;;
18399;SDS011;9326;49.468;11.008;2023-04-06T19:14:22;17.57;;;12.33;;
18399;SDS011;9326;49.468;11.008;2023-04-06T19:16:51;20.37;;;13.33;;
18399;SDS011;9326;49.468;11.008;2023-04-06T19:19:18;24.03;;;15.77;;
18399;SDS011;9326;49.468;11.008;2023-04-06T19:21:46;33.17;;;19.13;;
18399;SDS011;9326;49.468;11.008;2023-04-06T19:24:13;24.17;;;16.23;;
18399;SDS011;9326;49.468;11.008;2023-04-06T19:26:41;31.53;;;18.87;;
18399;SDS011;9326;49.468;11.008;2023-04-06T19:29:08;69.03;;;50.23;;
18399;SDS011;9326;49.468;11.008;2023-04-06T19:31:37;30.07;;;22.50;;
18399;SDS011;9326;49.468;11.008;2023-04-06T19:34:04;28.93;;;21.80;;
18399;SDS011;9326;49.468;11.008;2023-04-06T19:36:32;27.17;;;18.33;;
18399;SDS011;9326;49.468;11.008;2023-04-06T19:38:59;22.60;;;17.20;;
18399;SDS011;9326;49.468;11.008;2023-04-06T19:41:26;17.33;;;12.53;;
18399;SDS011;9326;49.468;11.008;2023-04-06T19:43:54;15.93;;;11.40;;
18399;SDS011;9326;49.468;11.008;2023-04-06T19:46:21;14.47;;;10.97;;
18399;SDS011;9326;49.468;11.008;2023-04-06T19:48:49;16.60;;;11.63;;
18399;SDS011;9326;49.468;11.008;2023-04-06T19:51:17;16.33;;;11.60;;
18399;SDS011;9326;49.468;11.008;2023-04-06T19:53:47;23.77;;;13.73;;
18399;SDS011;9326;49.468;11.008;2023-04-06T19:56:14;20.00;;;13.23;;
18399;SDS011;9326;49.468;11.008;2023-04-06T19:58:42;23.20;;;14.23;;
18399;SDS011;9326;49.468;11.008;2023-04-06T20:01:09;22.53;;;14.77;;
18399;SDS011;9326;49.468;11.008;2023-04-06T20:03:37;24.07;;;16.17;;
18399;SDS011;9326;49.468;11.008;2023-04-06T20:06:07;28.00;;;18.23;;
18399;SDS011;9326;49.468;11.008;2023-04-06T20:08:36;26.17;;;20.33;;